createdAt,value
2023-01-26T00:01:50.677Z,8.47
2023-01-26T00:04:20.181Z,9.10
2023-01-26T00:06:52.259Z,9.33
2023-01-26T00:09:21.757Z,9.63
2023-01-26T00:11:51.335Z,9.23
2023-01-26T00:14:20.946Z,8.47
2023-01-26T00:16:50.404Z,9.63
2023-01-26T00:19:20.089Z,9.37
2023-01-26T00:21:52.219Z,9.00
2023-01-26T00:24:21.835Z,8.97
2023-01-26T00:26:51.268Z,8.57
2023-01-26T00:29:21.383Z,8.47
2023-01-26T00:31:50.869Z,10.00
2023-01-26T00:34:20.333Z,8.27
2023-01-26T00:36:52.423Z,9.37
2023-01-26T00:39:21.959Z,8.77
2023-01-26T00:42:03.892Z,9.10
2023-01-26T00:44:33.393Z,9.07
2023-01-26T00:47:02.928Z,9.47
2023-01-26T00:49:32.483Z,9.20
2023-01-26T00:52:04.620Z,9.13
2023-01-26T00:54:34.251Z,9.53
2023-01-26T00:57:03.910Z,9.10
2023-01-26T00:59:33.751Z,10.33
2023-01-26T01:02:04.009Z,9.17
2023-01-26T01:04:33.613Z,9.00
2023-01-26T01:07:06.001Z,10.37
2023-01-26T01:09:35.840Z,10.33
2023-01-26T01:12:05.369Z,10.37
2023-01-26T01:14:34.880Z,9.23
2023-01-26T01:17:04.394Z,9.13
2023-01-26T01:19:34.062Z,9.50
2023-01-26T01:22:06.496Z,10.00
2023-01-26T01:24:38.609Z,8.67
2023-01-26T01:27:08.336Z,9.80
2023-01-26T01:29:37.824Z,9.83
2023-01-26T01:32:07.588Z,10.67
2023-01-26T01:34:37.028Z,10.30
2023-01-26T01:37:09.162Z,8.60
2023-01-26T01:39:38.698Z,9.87
2023-01-26T01:42:08.162Z,10.37
2023-01-26T01:44:38.000Z,9.50
2023-01-26T01:47:09.221Z,10.00
2023-01-26T01:49:40.993Z,11.30
2023-01-26T01:52:15.920Z,10.53
2023-01-26T01:54:48.967Z,9.93
2023-01-26T01:57:27.823Z,10.30
2023-01-26T02:00:00.674Z,10.60
2023-01-26T02:02:30.297Z,9.77
2023-01-26T02:05:00.762Z,10.30
2023-01-26T02:07:35.263Z,9.90
2023-01-26T02:10:18.328Z,10.37
2023-01-26T02:12:49.166Z,9.87
2023-01-26T02:15:18.791Z,9.40
2023-01-26T02:17:48.386Z,9.50
2023-01-26T02:20:23.241Z,9.70
2023-01-26T02:22:58.563Z,8.80
2023-01-26T02:25:33.014Z,9.37
2023-01-26T02:28:05.297Z,9.30
2023-01-26T02:30:35.050Z,9.43
2023-01-26T02:33:04.714Z,10.03
2023-01-26T02:35:36.103Z,10.53
2023-01-26T02:38:06.432Z,10.90
2023-01-26T02:40:40.563Z,10.20
2023-01-26T02:43:10.154Z,10.60
2023-01-26T02:45:41.506Z,10.03
2023-01-26T02:48:11.041Z,10.67
2023-01-26T02:50:37.887Z,9.60
2023-01-26T02:53:07.398Z,10.47
2023-01-26T02:55:35.062Z,10.40
2023-01-26T02:58:05.815Z,9.63
2023-01-26T03:00:42.142Z,9.87
2023-01-26T03:03:15.132Z,9.33
2023-01-26T03:05:44.849Z,9.60
2023-01-26T03:08:14.365Z,9.20
2023-01-26T03:10:43.974Z,9.83
2023-01-26T03:13:13.429Z,10.27
2023-01-26T03:15:52.576Z,9.80
2023-01-26T03:18:37.307Z,9.97
2023-01-26T03:21:20.125Z,9.40
2023-01-26T03:24:02.187Z,10.03
2023-01-26T03:26:44.233Z,9.30
2023-01-26T03:29:15.207Z,9.67
2023-01-26T03:31:48.807Z,8.87
2023-01-26T03:34:18.581Z,10.47
2023-01-26T03:36:49.352Z,9.73
2023-01-26T03:39:32.797Z,10.60
2023-01-26T03:42:15.347Z,9.27
2023-01-26T03:44:57.397Z,9.73
2023-01-26T03:47:41.979Z,9.73
2023-01-26T03:50:24.927Z,9.80
2023-01-26T03:53:07.150Z,9.53
2023-01-26T03:55:49.161Z,9.33
2023-01-26T03:58:18.666Z,10.23
2023-01-26T04:00:48.177Z,10.23
2023-01-26T04:03:32.829Z,9.23
2023-01-26T04:06:15.545Z,10.17
2023-01-26T04:08:49.981Z,9.83
2023-01-26T04:11:19.459Z,8.40
2023-01-26T04:14:01.373Z,9.87
2023-01-26T04:16:46.797Z,9.40
2023-01-26T04:19:32.002Z,9.30
2023-01-26T04:22:01.895Z,9.83
2023-01-26T04:24:33.107Z,9.80
2023-01-26T04:27:02.646Z,10.17
2023-01-26T04:29:37.945Z,10.57
2023-01-26T04:32:07.833Z,10.53
2023-01-26T04:34:40.403Z,10.10
2023-01-26T04:37:17.381Z,8.53
2023-01-26T04:39:49.872Z,10.03
2023-01-26T04:42:20.036Z,10.23
2023-01-26T04:44:49.457Z,9.70
2023-01-26T04:47:19.256Z,10.20
2023-01-26T04:49:51.477Z,10.10
2023-01-26T04:52:23.808Z,10.03
2023-01-26T04:54:53.833Z,9.77
2023-01-26T04:57:23.920Z,9.97
2023-01-26T04:59:54.538Z,9.63
2023-01-26T05:02:24.068Z,10.13
2023-01-26T05:04:56.204Z,10.60
2023-01-26T05:07:26.791Z,9.77
2023-01-26T05:09:56.313Z,9.97
2023-01-26T05:12:48.828Z,9.70
2023-01-26T05:15:35.757Z,10.90
2023-01-26T05:18:14.046Z,10.13
2023-01-26T05:20:55.475Z,10.00
2023-01-26T05:23:28.192Z,11.47
2023-01-26T05:26:24.695Z,10.93
2023-01-26T05:29:04.445Z,11.20
2023-01-26T05:31:34.674Z,10.30
2023-01-26T05:34:04.143Z,10.53
2023-01-26T05:36:38.806Z,9.87
2023-01-26T05:39:08.385Z,9.07
2023-01-26T05:41:38.146Z,10.07
2023-01-26T05:44:29.368Z,10.43
2023-01-26T05:47:04.681Z,10.87
2023-01-26T05:49:34.558Z,10.40
2023-01-26T05:52:10.735Z,10.43
2023-01-26T05:54:41.916Z,10.60
2023-01-26T05:57:12.003Z,11.03
2023-01-26T05:59:46.637Z,10.00
2023-01-26T06:02:16.268Z,10.83
2023-01-26T06:04:47.389Z,10.23
2023-01-26T06:07:20.973Z,10.70
2023-01-26T06:10:07.876Z,10.57
2023-01-26T06:12:54.710Z,9.63
2023-01-26T06:15:40.343Z,10.20
2023-01-26T06:18:10.490Z,11.20
2023-01-26T06:20:42.817Z,11.07
2023-01-26T06:23:16.159Z,11.37
2023-01-26T06:25:47.735Z,10.27
2023-01-26T06:28:17.300Z,10.43
2023-01-26T06:30:46.947Z,11.13
2023-01-26T06:33:17.804Z,10.03
2023-01-26T06:35:48.074Z,10.70
2023-01-26T06:38:20.610Z,10.27
2023-01-26T06:40:50.766Z,11.33
2023-01-26T06:43:20.200Z,10.43
2023-01-26T06:45:49.956Z,9.67
2023-01-26T06:48:19.594Z,9.90
2023-01-26T06:50:49.275Z,9.93
2023-01-26T06:53:33.020Z,9.60
2023-01-26T06:56:19.873Z,9.27
2023-01-26T06:59:00.341Z,9.53
2023-01-26T07:01:54.210Z,9.07
2023-01-26T07:04:23.750Z,10.63
2023-01-26T07:06:53.185Z,10.70
2023-01-26T07:09:25.308Z,10.60
2023-01-26T07:11:54.763Z,11.50
2023-01-26T07:14:24.503Z,10.47
2023-01-26T07:16:54.108Z,10.10
2023-01-26T07:19:23.664Z,10.33
2023-01-26T07:21:53.073Z,10.87
2023-01-26T07:24:25.294Z,11.40
2023-01-26T07:26:54.962Z,10.03
2023-01-26T07:29:24.442Z,11.53
2023-01-26T07:31:54.068Z,10.70
2023-01-26T07:34:23.553Z,11.50
2023-01-26T07:36:54.650Z,12.17
2023-01-26T07:39:26.995Z,11.13
2023-01-26T07:41:56.626Z,10.23
2023-01-26T07:44:49.927Z,11.90
2023-01-26T07:47:20.242Z,11.10
2023-01-26T07:49:49.881Z,10.30
2023-01-26T07:52:19.495Z,11.53
2023-01-26T07:54:51.671Z,11.17
2023-01-26T07:57:21.193Z,11.40
2023-01-26T07:59:50.629Z,10.37
2023-01-26T08:02:20.130Z,10.20
2023-01-26T08:04:49.679Z,10.00
2023-01-26T08:07:19.479Z,9.43
2023-01-26T08:09:51.518Z,9.73
2023-01-26T08:12:21.189Z,10.77
2023-01-26T08:14:50.680Z,9.43
2023-01-26T08:17:20.254Z,10.10
2023-01-26T08:19:49.865Z,9.83
2023-01-26T08:22:19.361Z,10.10
2023-01-26T08:24:51.488Z,8.97
2023-01-26T08:27:21.063Z,10.10
2023-01-26T08:29:51.551Z,10.00
2023-01-26T08:32:21.064Z,10.00
2023-01-26T08:34:50.566Z,9.30
2023-01-26T08:37:20.181Z,9.60
2023-01-26T08:39:52.204Z,9.23
2023-01-26T08:42:22.757Z,8.17
2023-01-26T08:44:52.563Z,9.20
2023-01-26T08:47:22.390Z,8.83
2023-01-26T08:49:51.808Z,7.80
2023-01-26T08:52:21.748Z,9.63
2023-01-26T08:54:53.842Z,8.00
2023-01-26T08:57:23.400Z,8.37
2023-01-26T08:59:52.828Z,6.80
2023-01-26T09:02:22.373Z,7.70
2023-01-26T09:04:51.859Z,6.80
2023-01-26T09:07:21.430Z,7.53
2023-01-26T09:09:53.641Z,8.33
2023-01-26T09:12:23.252Z,8.40
2023-01-26T09:14:52.821Z,7.30
2023-01-26T09:17:22.360Z,7.63
2023-01-26T09:19:51.895Z,7.67
2023-01-26T09:22:21.438Z,8.50
2023-01-26T09:24:53.599Z,8.43
2023-01-26T09:27:23.170Z,8.47
2023-01-26T09:29:53.778Z,9.10
2023-01-26T09:32:23.326Z,8.70
2023-01-26T09:34:52.969Z,7.20
2023-01-26T09:37:22.913Z,7.50
2023-01-26T09:39:55.051Z,7.73
2023-01-26T09:42:36.799Z,7.10
2023-01-26T09:45:12.205Z,6.83
2023-01-26T09:47:47.044Z,6.67
2023-01-26T09:50:18.935Z,6.87
2023-01-26T09:52:53.697Z,8.27
2023-01-26T09:55:26.068Z,7.77
2023-01-26T09:57:58.137Z,7.53
2023-01-26T10:00:29.937Z,8.57
2023-01-26T10:03:06.521Z,8.40
2023-01-26T10:05:40.840Z,9.53
2023-01-26T10:08:13.268Z,10.03
2023-01-26T10:10:49.014Z,8.93
2023-01-26T10:13:20.273Z,8.00
2023-01-26T10:15:50.942Z,8.67
2023-01-26T10:18:22.451Z,9.00
2023-01-26T10:20:53.939Z,9.10
2023-01-26T10:23:25.346Z,9.23
2023-01-26T10:25:59.159Z,8.97
2023-01-26T10:28:30.332Z,9.43
2023-01-26T10:31:00.311Z,9.27
2023-01-26T10:33:33.109Z,9.43
2023-01-26T10:36:02.990Z,9.00
2023-01-26T10:38:43.399Z,8.30
2023-01-26T10:41:28.988Z,9.20
2023-01-26T10:43:59.835Z,9.77
2023-01-26T10:46:31.236Z,9.73
2023-01-26T10:49:01.599Z,8.73
2023-01-26T10:51:32.572Z,8.37
2023-01-26T10:54:21.911Z,7.67
2023-01-26T10:56:55.437Z,8.40
2023-01-26T10:59:33.807Z,7.87
2023-01-26T11:02:04.361Z,7.37
2023-01-26T11:04:33.976Z,7.60
2023-01-26T11:07:22.317Z,8.90
2023-01-26T11:09:53.550Z,8.87
2023-01-26T11:12:28.245Z,9.33
2023-01-26T11:15:05.031Z,9.13
2023-01-26T11:17:38.974Z,8.47
2023-01-26T11:20:13.559Z,8.57
2023-01-26T11:22:47.632Z,8.47
2023-01-26T11:25:20.735Z,9.10
2023-01-26T11:28:00.501Z,9.07
2023-01-26T11:30:39.857Z,9.80
2023-01-26T11:33:15.977Z,10.53
2023-01-26T11:35:50.097Z,8.70
2023-01-26T11:38:28.390Z,8.53
2023-01-26T11:41:02.744Z,8.10
2023-01-26T11:43:49.854Z,8.70
2023-01-26T11:46:25.563Z,8.70
2023-01-26T11:49:02.111Z,9.03
2023-01-26T11:51:37.761Z,9.20
2023-01-26T11:54:16.125Z,8.47
2023-01-26T11:56:51.263Z,10.07
2023-01-26T11:59:25.235Z,8.87
2023-01-26T12:02:00.816Z,11.00
2023-01-26T12:04:31.389Z,8.73
2023-01-26T12:07:04.431Z,8.37
2023-01-26T12:09:38.733Z,9.40
2023-01-26T12:12:12.981Z,10.23
2023-01-26T12:14:49.369Z,10.07
2023-01-26T12:17:28.229Z,9.47
2023-01-26T12:20:04.545Z,10.30
2023-01-26T12:22:35.508Z,9.80
2023-01-26T12:25:19.694Z,9.13
2023-01-26T12:27:52.539Z,8.77
2023-01-26T12:30:31.412Z,9.23
2023-01-26T12:33:01.211Z,10.07
2023-01-26T12:35:40.410Z,10.07
2023-01-26T12:38:18.149Z,9.53
2023-01-26T12:40:53.651Z,9.87
2023-01-26T12:43:28.405Z,10.60
2023-01-26T12:46:01.012Z,10.50
2023-01-26T12:48:34.909Z,10.10
2023-01-26T12:51:07.459Z,10.17
2023-01-26T12:53:39.418Z,9.57
2023-01-26T12:56:12.451Z,10.80
2023-01-26T12:58:44.457Z,10.43
2023-01-26T13:01:18.593Z,10.30
2023-01-26T13:03:53.621Z,11.07
2023-01-26T13:06:24.747Z,9.57
2023-01-26T13:09:04.467Z,11.00
2023-01-26T13:11:44.604Z,11.47
2023-01-26T13:14:29.134Z,15.30
2023-01-26T13:17:01.769Z,17.97
2023-01-26T13:19:38.405Z,12.83
2023-01-26T13:22:30.743Z,11.87
2023-01-26T13:25:01.002Z,10.13
2023-01-26T13:27:31.930Z,10.70
2023-01-26T13:30:01.872Z,11.00
2023-01-26T13:32:59.723Z,11.87
2023-01-26T13:35:32.400Z,12.37
2023-01-26T13:38:09.559Z,10.80
2023-01-26T13:40:40.198Z,12.73
2023-01-26T13:43:25.299Z,8.73
2023-01-26T13:46:01.692Z,11.30
2023-01-26T13:48:45.338Z,9.17
2023-01-26T13:51:27.948Z,8.17
2023-01-26T13:54:01.734Z,9.20
2023-01-26T13:56:32.787Z,9.47
2023-01-26T13:59:09.931Z,7.90
2023-01-26T14:01:43.670Z,8.27
2023-01-26T14:04:16.739Z,8.97
2023-01-26T14:06:51.955Z,7.67
2023-01-26T14:09:21.850Z,7.70
2023-01-26T14:11:58.572Z,7.20
2023-01-26T14:14:29.008Z,8.83
2023-01-26T14:17:00.309Z,8.13
2023-01-26T14:19:30.601Z,8.37
2023-01-26T14:22:05.319Z,7.37
2023-01-26T14:24:35.732Z,8.90
2023-01-26T14:27:06.056Z,8.43
2023-01-26T14:29:40.905Z,9.60
2023-01-26T14:32:16.915Z,8.33
2023-01-26T14:34:54.283Z,9.13
2023-01-26T14:37:27.079Z,8.80
2023-01-26T14:40:12.044Z,8.63
2023-01-26T14:42:42.590Z,7.97
2023-01-26T14:45:14.650Z,8.53
2023-01-26T14:47:45.523Z,9.23
2023-01-26T14:50:18.056Z,7.67
2023-01-26T14:52:50.331Z,8.30
2023-01-26T14:55:21.672Z,7.83
2023-01-26T14:57:52.148Z,9.23
2023-01-26T15:00:24.814Z,9.33
2023-01-26T15:02:55.855Z,8.77
2023-01-26T15:05:26.326Z,9.20
2023-01-26T15:08:02.333Z,8.97
2023-01-26T15:10:39.137Z,11.17
2023-01-26T15:13:10.367Z,10.27
2023-01-26T15:15:40.901Z,9.37
2023-01-26T15:18:20.337Z,10.83
2023-01-26T15:21:00.541Z,8.60
2023-01-26T15:23:33.737Z,10.63
2023-01-26T15:26:07.501Z,9.67
2023-01-26T15:28:37.451Z,10.37
2023-01-26T15:31:07.331Z,7.77
2023-01-26T15:33:47.129Z,9.47
2023-01-26T15:36:27.429Z,9.47
2023-01-26T15:39:07.353Z,9.43
2023-01-26T15:41:36.883Z,9.40
2023-01-26T15:44:06.505Z,10.70
2023-01-26T15:46:36.284Z,8.73
2023-01-26T15:49:05.809Z,8.50
2023-01-26T15:51:35.256Z,7.80
2023-01-26T15:54:08.018Z,7.63
2023-01-26T15:56:37.568Z,7.93
2023-01-26T15:59:07.060Z,7.97
2023-01-26T16:01:36.569Z,7.60
2023-01-26T16:04:06.087Z,8.80
2023-01-26T16:06:36.576Z,9.87
2023-01-26T16:09:08.727Z,8.73
2023-01-26T16:11:40.033Z,8.63
2023-01-26T16:14:09.560Z,8.67
2023-01-26T16:16:39.162Z,8.03
2023-01-26T16:19:08.972Z,9.57
2023-01-26T16:21:41.419Z,8.07
2023-01-26T16:24:14.653Z,8.20
2023-01-26T16:26:44.190Z,7.73
2023-01-26T16:29:13.757Z,7.80
2023-01-26T16:31:43.831Z,8.17
2023-01-26T16:34:13.363Z,8.90
2023-01-26T16:36:43.048Z,7.93
2023-01-26T16:39:15.432Z,8.27
2023-01-26T16:41:44.918Z,7.77
2023-01-26T16:44:15.129Z,7.43
2023-01-26T16:46:45.711Z,7.80
2023-01-26T16:49:16.112Z,7.63
2023-01-26T16:51:46.744Z,8.40
2023-01-26T16:54:18.808Z,8.23
2023-01-26T16:56:48.719Z,7.73
2023-01-26T16:59:18.170Z,6.67
2023-01-26T17:01:47.725Z,7.70
2023-01-26T17:04:17.207Z,7.20
2023-01-26T17:06:46.713Z,6.73
2023-01-26T17:09:18.916Z,6.97
2023-01-26T17:11:48.516Z,7.33
2023-01-26T17:14:18.066Z,6.87
2023-01-26T17:16:47.617Z,6.70
2023-01-26T17:19:17.136Z,4.93
2023-01-26T17:21:46.724Z,6.77
2023-01-26T17:24:18.906Z,6.47
2023-01-26T17:26:48.450Z,6.37
2023-01-26T17:29:17.892Z,6.87
2023-01-26T17:31:47.597Z,6.50
2023-01-26T17:34:17.119Z,6.70
2023-01-26T17:36:46.569Z,5.83
2023-01-26T17:39:18.912Z,6.27
2023-01-26T17:41:48.456Z,6.47
2023-01-26T17:44:18.073Z,5.70
2023-01-26T17:46:47.800Z,6.60
2023-01-26T17:49:17.551Z,6.97
2023-01-26T17:51:47.800Z,6.27
2023-01-26T17:54:20.045Z,5.93
2023-01-26T17:56:49.933Z,6.73
2023-01-26T17:59:19.464Z,7.53
2023-01-26T18:01:49.030Z,5.73
2023-01-26T18:04:18.486Z,6.90
2023-01-26T18:06:48.039Z,7.67
2023-01-26T18:09:20.116Z,7.47
2023-01-26T18:11:50.757Z,6.43
2023-01-26T18:14:20.274Z,6.17
2023-01-26T18:16:50.773Z,6.43
2023-01-26T18:19:20.388Z,7.17
2023-01-26T18:21:51.175Z,6.77
2023-01-26T18:24:23.511Z,6.70
2023-01-26T18:26:53.253Z,7.50
2023-01-26T18:29:22.757Z,5.87
2023-01-26T18:31:52.253Z,7.37
2023-01-26T18:34:21.865Z,7.33
2023-01-26T18:36:51.366Z,6.47
2023-01-26T18:39:23.577Z,7.00
2023-01-26T18:41:53.129Z,7.40
2023-01-26T18:44:22.799Z,6.87
2023-01-26T18:46:52.358Z,6.47
2023-01-26T18:49:21.996Z,7.30
2023-01-26T18:51:52.363Z,6.37
2023-01-26T18:54:24.542Z,6.77
2023-01-26T18:56:54.433Z,7.67
2023-01-26T18:59:23.920Z,6.27
2023-01-26T19:01:55.468Z,7.73
2023-01-26T19:04:25.042Z,6.87
2023-01-26T19:06:54.540Z,7.00
2023-01-26T19:09:29.180Z,7.60
2023-01-26T19:11:59.534Z,6.63
2023-01-26T19:14:29.427Z,7.23
2023-01-26T19:16:59.031Z,6.90
2023-01-26T19:19:29.456Z,6.43
2023-01-26T19:21:58.955Z,7.40
2023-01-26T19:24:31.019Z,6.67
2023-01-26T19:27:00.600Z,6.53
2023-01-26T19:29:30.112Z,6.83
2023-01-26T19:31:59.732Z,6.37
2023-01-26T19:34:31.968Z,6.47
2023-01-26T19:37:01.803Z,6.43
2023-01-26T19:39:33.924Z,6.03
2023-01-26T19:42:03.516Z,5.60
2023-01-26T19:44:32.992Z,6.07
2023-01-26T19:47:02.634Z,5.97
2023-01-26T19:49:32.887Z,7.83
2023-01-26T19:52:02.630Z,6.27
2023-01-26T19:54:34.836Z,6.73
2023-01-26T19:57:04.347Z,5.87
2023-01-26T19:59:33.783Z,5.97
2023-01-26T20:02:03.460Z,6.40
2023-01-26T20:04:32.897Z,5.20
2023-01-26T20:07:05.325Z,5.87
2023-01-26T20:09:37.914Z,5.97
2023-01-26T20:12:09.330Z,5.03
2023-01-26T20:14:38.970Z,5.00
2023-01-26T20:17:08.411Z,6.03
2023-01-26T20:19:37.971Z,5.33
2023-01-26T20:22:08.983Z,5.47
2023-01-26T20:24:41.298Z,5.27
2023-01-26T20:27:11.129Z,6.27
2023-01-26T20:29:40.590Z,5.97
2023-01-26T20:32:10.147Z,6.47
2023-01-26T20:34:41.085Z,7.23
2023-01-26T20:37:11.545Z,5.93
2023-01-26T20:39:46.671Z,5.57
2023-01-26T20:42:18.394Z,6.57
2023-01-26T20:44:47.993Z,6.50
2023-01-26T20:47:17.429Z,6.97
2023-01-26T20:49:46.958Z,7.23
2023-01-26T20:52:16.468Z,6.93
2023-01-26T20:54:48.651Z,6.27
2023-01-26T20:57:18.632Z,7.33
2023-01-26T20:59:48.608Z,5.90
2023-01-26T21:02:18.599Z,7.27
2023-01-26T21:04:48.095Z,7.43
2023-01-26T21:07:17.677Z,7.67
2023-01-26T21:09:49.795Z,7.23
2023-01-26T21:12:19.381Z,7.50
2023-01-26T21:14:48.873Z,6.93
2023-01-26T21:17:22.529Z,6.30
2023-01-26T21:19:52.110Z,6.27
2023-01-26T21:22:21.557Z,6.33
2023-01-26T21:24:53.720Z,7.27
2023-01-26T21:27:23.166Z,7.27
2023-01-26T21:29:52.769Z,5.60
2023-01-26T21:32:22.355Z,6.60
2023-01-26T21:34:51.814Z,5.27
2023-01-26T21:37:21.384Z,6.77
2023-01-26T21:39:53.987Z,7.83
2023-01-26T21:42:23.568Z,6.27
2023-01-26T21:45:05.437Z,7.43
2023-01-26T21:47:35.002Z,6.33
2023-01-26T21:50:04.690Z,5.37
2023-01-26T21:52:46.681Z,5.47
2023-01-26T21:55:18.814Z,5.80
2023-01-26T21:58:00.731Z,5.57
2023-01-26T22:00:32.389Z,5.67
2023-01-26T22:03:02.042Z,5.77
2023-01-26T22:05:31.532Z,6.13
2023-01-26T22:08:01.308Z,6.33
2023-01-26T22:10:33.394Z,7.03
2023-01-26T22:13:02.926Z,7.73
2023-01-26T22:15:32.458Z,7.10
2023-01-26T22:18:01.929Z,8.13
2023-01-26T22:20:31.419Z,7.73
2023-01-26T22:23:01.837Z,7.50
2023-01-26T22:25:34.143Z,7.17
2023-01-26T22:28:03.703Z,7.13
2023-01-26T22:30:34.059Z,7.40
2023-01-26T22:33:03.562Z,8.10
2023-01-26T22:35:33.084Z,7.20
2023-01-26T22:38:02.911Z,6.80
2023-01-26T22:40:34.990Z,8.20
2023-01-26T22:43:04.534Z,6.90
2023-01-26T22:45:34.435Z,6.97
2023-01-26T22:48:03.941Z,6.57
2023-01-26T22:50:33.458Z,7.13
2023-01-26T22:53:03.019Z,7.33
2023-01-26T22:55:35.112Z,7.43
2023-01-26T22:58:04.702Z,7.70
2023-01-26T23:00:35.377Z,6.93
2023-01-26T23:03:05.595Z,6.77
2023-01-26T23:05:35.502Z,8.10
2023-01-26T23:08:05.459Z,7.27
2023-01-26T23:10:37.790Z,7.13
2023-01-26T23:13:08.243Z,7.37
2023-01-26T23:15:37.762Z,7.10
2023-01-26T23:18:07.221Z,6.13
2023-01-26T23:20:36.704Z,6.90
2023-01-26T23:23:06.199Z,7.10
2023-01-26T23:25:53.448Z,7.73
2023-01-26T23:28:23.710Z,6.50
2023-01-26T23:30:53.888Z,7.43
2023-01-26T23:33:24.185Z,7.10
2023-01-26T23:35:53.739Z,6.93
2023-01-26T23:38:24.087Z,7.87
2023-01-26T23:40:57.144Z,7.10
2023-01-26T23:43:26.790Z,7.57
2023-01-26T23:45:56.875Z,6.40
2023-01-26T23:48:26.894Z,7.53
2023-01-26T23:51:00.147Z,7.20
2023-01-26T23:53:30.805Z,7.53
2023-01-26T23:56:03.552Z,6.50
2023-01-26T23:58:33.341Z,7.60
